sensor_id;sensor_type;location;lat;lon;timestamp;temperature;humidity
14604;DHT22;7388;51.078;13.740;2024-01-16T00:01:42;4.70;44.70
14604;DHT22;7388;51.078;13.740;2024-01-16T00:04:08;4.80;45.00
14604;DHT22;7388;51.078;13.740;2024-01-16T00:06:38;4.80;45.00
14604;DHT22;7388;51.078;13.740;2024-01-16T00:09:03;4.90;44.80
14604;DHT22;7388;51.078;13.740;2024-01-16T00:11:30;4.80;43.90
14604;DHT22;7388;51.078;13.740;2024-01-16T00:13:56;4.90;43.80
14604;DHT22;7388;51.078;13.740;2024-01-16T00:16:22;5.00;43.50
14604;DHT22;7388;51.078;13.740;2024-01-16T00:18:47;5.00;42.30
14604;DHT22;7388;51.078;13.740;2024-01-16T00:21:13;5.00;43.00
14604;DHT22;7388;51.078;13.740;2024-01-16T00:23:39;5.10;42.20
14604;DHT22;7388;51.078;13.740;2024-01-16T00:26:04;4.90;42.40
14604;DHT22;7388;51.078;13.740;2024-01-16T00:28:31;5.00;42.60
14604;DHT22;7388;51.078;13.740;2024-01-16T00:30:57;4.90;42.80
14604;DHT22;7388;51.078;13.740;2024-01-16T00:33:23;4.70;45.80
14604;DHT22;7388;51.078;13.740;2024-01-16T00:35:49;4.40;48.00
14604;DHT22;7388;51.078;13.740;2024-01-16T00:38:14;4.40;48.10
14604;DHT22;7388;51.078;13.740;2024-01-16T00:40:40;4.40;48.00
14604;DHT22;7388;51.078;13.740;2024-01-16T00:43:06;4.50;47.90
14604;DHT22;7388;51.078;13.740;2024-01-16T00:45:31;4.60;47.60
14604;DHT22;7388;51.078;13.740;2024-01-16T00:47:57;4.70;47.50
14604;DHT22;7388;51.078;13.740;2024-01-16T00:50:23;4.60;47.20
14604;DHT22;7388;51.078;13.740;2024-01-16T00:52:50;4.50;47.20
14604;DHT22;7388;51.078;13.740;2024-01-16T00:55:15;4.40;47.30
14604;DHT22;7388;51.078;13.740;2024-01-16T00:57:41;4.40;47.30
14604;DHT22;7388;51.078;13.740;2024-01-16T01:00:07;4.30;47.90
14604;DHT22;7388;51.078;13.740;2024-01-16T01:02:35;4.30;48.00
14604;DHT22;7388;51.078;13.740;2024-01-16T01:05:01;4.40;47.80
14604;DHT22;7388;51.078;13.740;2024-01-16T01:07:26;4.40;47.80
14604;DHT22;7388;51.078;13.740;2024-01-16T01:09:52;4.50;46.80
14604;DHT22;7388;51.078;13.740;2024-01-16T01:12:18;4.50;46.80
14604;DHT22;7388;51.078;13.740;2024-01-16T01:14:44;4.60;46.20
14604;DHT22;7388;51.078;13.740;2024-01-16T01:17:09;4.60;46.30
14604;DHT22;7388;51.078;13.740;2024-01-16T01:19:35;4.70;45.70
14604;DHT22;7388;51.078;13.740;2024-01-16T01:22:01;4.60;45.50
14604;DHT22;7388;51.078;13.740;2024-01-16T01:24:26;4.60;46.10
14604;DHT22;7388;51.078;13.740;2024-01-16T01:26:52;4.60;46.10
14604;DHT22;7388;51.078;13.740;2024-01-16T01:29:18;4.60;46.60
14604;DHT22;7388;51.078;13.740;2024-01-16T01:31:47;4.60;46.80
14604;DHT22;7388;51.078;13.740;2024-01-16T01:34:13;4.50;47.10
14604;DHT22;7388;51.078;13.740;2024-01-16T01:36:39;4.60;47.10
14604;DHT22;7388;51.078;13.740;2024-01-16T01:39:05;4.60;46.90
14604;DHT22;7388;51.078;13.740;2024-01-16T01:41:31;4.70;46.80
14604;DHT22;7388;51.078;13.740;2024-01-16T01:43:57;4.70;46.60
14604;DHT22;7388;51.078;13.740;2024-01-16T01:46:22;4.70;46.50
14604;DHT22;7388;51.078;13.740;2024-01-16T01:48:49;4.80;46.30
14604;DHT22;7388;51.078;13.740;2024-01-16T01:51:18;4.70;46.50
14604;DHT22;7388;51.078;13.740;2024-01-16T01:53:45;4.60;46.80
14604;DHT22;7388;51.078;13.740;2024-01-16T01:56:14;4.40;47.10
14604;DHT22;7388;51.078;13.740;2024-01-16T01:58:44;4.40;47.10
14604;DHT22;7388;51.078;13.740;2024-01-16T02:01:11;4.50;46.70
14604;DHT22;7388;51.078;13.740;2024-01-16T02:03:46;4.50;46.60
14604;DHT22;7388;51.078;13.740;2024-01-16T02:06:13;4.50;46.30
14604;DHT22;7388;51.078;13.740;2024-01-16T02:08:39;4.60;45.90
14604;DHT22;7388;51.078;13.740;2024-01-16T02:11:05;4.60;45.60
14604;DHT22;7388;51.078;13.740;2024-01-16T02:13:31;4.80;45.30
14604;DHT22;7388;51.078;13.740;2024-01-16T02:15:57;4.70;44.80
14604;DHT22;7388;51.078;13.740;2024-01-16T02:18:24;4.70;45.30
14604;DHT22;7388;51.078;13.740;2024-01-16T02:20:49;4.70;45.10
14604;DHT22;7388;51.078;13.740;2024-01-16T02:23:26;4.80;44.70
14604;DHT22;7388;51.078;13.740;2024-01-16T02:25:52;4.70;44.80
14604;DHT22;7388;51.078;13.740;2024-01-16T02:28:18;4.50;46.10
14604;DHT22;7388;51.078;13.740;2024-01-16T02:30:43;4.40;46.40
14604;DHT22;7388;51.078;13.740;2024-01-16T02:33:09;4.30;47.10
14604;DHT22;7388;51.078;13.740;2024-01-16T02:35:35;4.30;47.40
14604;DHT22;7388;51.078;13.740;2024-01-16T02:38:01;4.40;47.20
14604;DHT22;7388;51.078;13.740;2024-01-16T02:40:26;4.50;46.70
14604;DHT22;7388;51.078;13.740;2024-01-16T02:42:52;4.40;47.10
14604;DHT22;7388;51.078;13.740;2024-01-16T02:45:18;4.40;47.10
14604;DHT22;7388;51.078;13.740;2024-01-16T02:47:44;4.50;47.10
14604;DHT22;7388;51.078;13.740;2024-01-16T02:50:09;4.60;46.80
14604;DHT22;7388;51.078;13.740;2024-01-16T02:52:35;4.60;47.10
14604;DHT22;7388;51.078;13.740;2024-01-16T02:55:01;4.60;48.00
14604;DHT22;7388;51.078;13.740;2024-01-16T02:57:27;4.60;47.20
14604;DHT22;7388;51.078;13.740;2024-01-16T02:59:53;4.60;46.90
14604;DHT22;7388;51.078;13.740;2024-01-16T03:02:18;4.70;46.60
14604;DHT22;7388;51.078;13.740;2024-01-16T03:04:44;4.60;46.30
14604;DHT22;7388;51.078;13.740;2024-01-16T03:07:10;4.60;46.30
14604;DHT22;7388;51.078;13.740;2024-01-16T03:09:35;4.60;46.30
14604;DHT22;7388;51.078;13.740;2024-01-16T03:12:02;4.60;45.90
14604;DHT22;7388;51.078;13.740;2024-01-16T03:14:28;4.60;45.60
14604;DHT22;7388;51.078;13.740;2024-01-16T03:17:00;4.60;45.60
14604;DHT22;7388;51.078;13.740;2024-01-16T03:19:25;4.60;45.00
14604;DHT22;7388;51.078;13.740;2024-01-16T03:21:51;4.70;45.00
14604;DHT22;7388;51.078;13.740;2024-01-16T03:24:17;4.70;44.70
14604;DHT22;7388;51.078;13.740;2024-01-16T03:26:42;4.70;44.40
14604;DHT22;7388;51.078;13.740;2024-01-16T03:29:09;4.90;44.10
14604;DHT22;7388;51.078;13.740;2024-01-16T03:31:35;5.00;43.50
14604;DHT22;7388;51.078;13.740;2024-01-16T03:34:01;5.10;43.20
14604;DHT22;7388;51.078;13.740;2024-01-16T03:36:27;5.10;43.00
14604;DHT22;7388;51.078;13.740;2024-01-16T03:38:53;5.00;42.20
14604;DHT22;7388;51.078;13.740;2024-01-16T03:41:19;4.90;42.70
14604;DHT22;7388;51.078;13.740;2024-01-16T03:43:44;4.90;42.80
14604;DHT22;7388;51.078;13.740;2024-01-16T03:46:11;5.00;43.20
14604;DHT22;7388;51.078;13.740;2024-01-16T03:48:37;4.90;43.80
14604;DHT22;7388;51.078;13.740;2024-01-16T03:51:02;4.80;44.10
14604;DHT22;7388;51.078;13.740;2024-01-16T03:53:28;4.70;45.30
14604;DHT22;7388;51.078;13.740;2024-01-16T03:55:54;4.80;45.10
14604;DHT22;7388;51.078;13.740;2024-01-16T03:58:20;4.80;45.00
14604;DHT22;7388;51.078;13.740;2024-01-16T04:00:47;5.00;45.00
14604;DHT22;7388;51.078;13.740;2024-01-16T04:03:13;4.80;45.70
14604;DHT22;7388;51.078;13.740;2024-01-16T04:05:39;4.80;45.80
14604;DHT22;7388;51.078;13.740;2024-01-16T04:08:04;4.90;45.60
14604;DHT22;7388;51.078;13.740;2024-01-16T04:10:30;5.00;45.20
14604;DHT22;7388;51.078;13.740;2024-01-16T04:12:57;5.00;45.00
14604;DHT22;7388;51.078;13.740;2024-01-16T04:15:25;5.10;44.80
14604;DHT22;7388;51.078;13.740;2024-01-16T04:17:50;5.10;44.90
14604;DHT22;7388;51.078;13.740;2024-01-16T04:20:16;5.10;44.70
14604;DHT22;7388;51.078;13.740;2024-01-16T04:22:42;5.00;45.10
14604;DHT22;7388;51.078;13.740;2024-01-16T04:25:08;5.00;45.60
14604;DHT22;7388;51.078;13.740;2024-01-16T04:27:35;4.90;46.30
14604;DHT22;7388;51.078;13.740;2024-01-16T04:30:00;4.80;46.60
14604;DHT22;7388;51.078;13.740;2024-01-16T04:32:26;4.90;46.20
14604;DHT22;7388;51.078;13.740;2024-01-16T04:34:52;5.00;45.80
14604;DHT22;7388;51.078;13.740;2024-01-16T04:37:18;5.10;45.60
14604;DHT22;7388;51.078;13.740;2024-01-16T04:39:44;5.10;45.40
14604;DHT22;7388;51.078;13.740;2024-01-16T04:42:09;5.10;45.30
14604;DHT22;7388;51.078;13.740;2024-01-16T04:44:35;5.10;45.10
14604;DHT22;7388;51.078;13.740;2024-01-16T04:47:01;5.10;44.70
14604;DHT22;7388;51.078;13.740;2024-01-16T04:49:27;5.00;44.50
14604;DHT22;7388;51.078;13.740;2024-01-16T04:51:53;5.00;44.60
14604;DHT22;7388;51.078;13.740;2024-01-16T04:54:19;5.10;43.70
14604;DHT22;7388;51.078;13.740;2024-01-16T04:56:45;5.10;43.40
14604;DHT22;7388;51.078;13.740;2024-01-16T04:59:11;5.20;42.50
14604;DHT22;7388;51.078;13.740;2024-01-16T05:01:36;5.10;42.50
14604;DHT22;7388;51.078;13.740;2024-01-16T05:04:03;5.00;42.60
14604;DHT22;7388;51.078;13.740;2024-01-16T05:06:29;4.90;42.80
14604;DHT22;7388;51.078;13.740;2024-01-16T05:08:55;5.00;42.30
14604;DHT22;7388;51.078;13.740;2024-01-16T05:11:21;4.90;42.50
14604;DHT22;7388;51.078;13.740;2024-01-16T05:13:47;4.80;42.20
14604;DHT22;7388;51.078;13.740;2024-01-16T05:16:13;4.80;42.70
14604;DHT22;7388;51.078;13.740;2024-01-16T05:18:41;4.70;42.60
14604;DHT22;7388;51.078;13.740;2024-01-16T05:21:08;4.40;44.00
14604;DHT22;7388;51.078;13.740;2024-01-16T05:23:34;4.50;43.00
14604;DHT22;7388;51.078;13.740;2024-01-16T05:26:00;4.50;43.30
14604;DHT22;7388;51.078;13.740;2024-01-16T05:28:25;4.60;42.80
14604;DHT22;7388;51.078;13.740;2024-01-16T05:30:51;4.70;42.60
14604;DHT22;7388;51.078;13.740;2024-01-16T05:33:17;4.80;42.30
14604;DHT22;7388;51.078;13.740;2024-01-16T05:35:43;4.90;41.30
14604;DHT22;7388;51.078;13.740;2024-01-16T05:38:08;5.00;41.20
14604;DHT22;7388;51.078;13.740;2024-01-16T05:40:34;5.00;40.70
14604;DHT22;7388;51.078;13.740;2024-01-16T05:43:00;5.00;41.20
14604;DHT22;7388;51.078;13.740;2024-01-16T05:45:25;5.10;41.30
14604;DHT22;7388;51.078;13.740;2024-01-16T05:47:51;5.00;40.90
14604;DHT22;7388;51.078;13.740;2024-01-16T05:50:17;5.00;41.30
14604;DHT22;7388;51.078;13.740;2024-01-16T05:52:44;5.20;41.40
14604;DHT22;7388;51.078;13.740;2024-01-16T05:55:09;5.30;41.10
14604;DHT22;7388;51.078;13.740;2024-01-16T05:57:36;5.30;40.90
14604;DHT22;7388;51.078;13.740;2024-01-16T06:00:03;5.30;40.00
14604;DHT22;7388;51.078;13.740;2024-01-16T06:02:30;5.10;40.40
14604;DHT22;7388;51.078;13.740;2024-01-16T06:04:56;5.10;41.00
14604;DHT22;7388;51.078;13.740;2024-01-16T06:07:22;5.20;41.10
14604;DHT22;7388;51.078;13.740;2024-01-16T06:09:48;5.10;41.30
14604;DHT22;7388;51.078;13.740;2024-01-16T06:12:14;5.10;41.20
14604;DHT22;7388;51.078;13.740;2024-01-16T06:14:40;4.90;41.10
14604;DHT22;7388;51.078;13.740;2024-01-16T06:17:05;4.80;42.20
14604;DHT22;7388;51.078;13.740;2024-01-16T06:19:32;4.80;43.10
14604;DHT22;7388;51.078;13.740;2024-01-16T06:21:59;4.80;44.30
14604;DHT22;7388;51.078;13.740;2024-01-16T06:24:25;4.60;45.20
14604;DHT22;7388;51.078;13.740;2024-01-16T06:26:51;4.60;45.10
14604;DHT22;7388;51.078;13.740;2024-01-16T06:29:17;4.70;45.40
14604;DHT22;7388;51.078;13.740;2024-01-16T06:31:42;4.80;44.80
14604;DHT22;7388;51.078;13.740;2024-01-16T06:34:08;4.90;44.40
14604;DHT22;7388;51.078;13.740;2024-01-16T06:36:34;5.00;43.80
14604;DHT22;7388;51.078;13.740;2024-01-16T06:39:00;5.10;43.60
14604;DHT22;7388;51.078;13.740;2024-01-16T06:41:25;5.00;43.40
14604;DHT22;7388;51.078;13.740;2024-01-16T06:43:51;4.90;43.60
14604;DHT22;7388;51.078;13.740;2024-01-16T06:46:17;4.90;43.60
14604;DHT22;7388;51.078;13.740;2024-01-16T06:48:43;4.60;45.20
14604;DHT22;7388;51.078;13.740;2024-01-16T06:51:09;4.70;45.10
14604;DHT22;7388;51.078;13.740;2024-01-16T06:53:36;4.80;44.50
14604;DHT22;7388;51.078;13.740;2024-01-16T06:56:02;4.50;44.70
14604;DHT22;7388;51.078;13.740;2024-01-16T06:58:28;4.50;44.30
14604;DHT22;7388;51.078;13.740;2024-01-16T07:00:54;4.50;46.80
14604;DHT22;7388;51.078;13.740;2024-01-16T07:03:20;4.30;47.80
14604;DHT22;7388;51.078;13.740;2024-01-16T07:05:46;4.30;47.50
14604;DHT22;7388;51.078;13.740;2024-01-16T07:08:12;4.40;46.90
14604;DHT22;7388;51.078;13.740;2024-01-16T07:10:38;4.50;46.50
14604;DHT22;7388;51.078;13.740;2024-01-16T07:13:03;4.40;45.80
14604;DHT22;7388;51.078;13.740;2024-01-16T07:15:29;4.50;45.30
14604;DHT22;7388;51.078;13.740;2024-01-16T07:17:55;4.60;44.30
14604;DHT22;7388;51.078;13.740;2024-01-16T07:20:21;4.60;43.60
14604;DHT22;7388;51.078;13.740;2024-01-16T07:22:46;4.60;43.60
14604;DHT22;7388;51.078;13.740;2024-01-16T07:25:12;4.70;43.20
14604;DHT22;7388;51.078;13.740;2024-01-16T07:27:38;4.70;42.90
14604;DHT22;7388;51.078;13.740;2024-01-16T07:30:05;4.70;41.60
14604;DHT22;7388;51.078;13.740;2024-01-16T07:32:31;4.60;41.90
14604;DHT22;7388;51.078;13.740;2024-01-16T07:34:57;4.70;42.30
14604;DHT22;7388;51.078;13.740;2024-01-16T07:37:23;4.80;42.30
14604;DHT22;7388;51.078;13.740;2024-01-16T07:39:49;4.90;41.70
14604;DHT22;7388;51.078;13.740;2024-01-16T07:42:15;4.90;41.20
14604;DHT22;7388;51.078;13.740;2024-01-16T07:44:41;4.60;40.20
14604;DHT22;7388;51.078;13.740;2024-01-16T07:47:06;4.60;41.80
14604;DHT22;7388;51.078;13.740;2024-01-16T07:49:33;4.70;40.30
14604;DHT22;7388;51.078;13.740;2024-01-16T07:51:59;4.70;40.40
14604;DHT22;7388;51.078;13.740;2024-01-16T07:54:25;4.70;40.00
14604;DHT22;7388;51.078;13.740;2024-01-16T07:56:52;4.60;41.40
14604;DHT22;7388;51.078;13.740;2024-01-16T07:59:17;4.80;40.80
14604;DHT22;7388;51.078;13.740;2024-01-16T08:01:43;4.80;39.90
14604;DHT22;7388;51.078;13.740;2024-01-16T08:04:09;4.90;40.00
14604;DHT22;7388;51.078;13.740;2024-01-16T08:06:35;4.90;40.20
14604;DHT22;7388;51.078;13.740;2024-01-16T08:09:02;5.00;40.00
14604;DHT22;7388;51.078;13.740;2024-01-16T08:11:27;5.10;39.90
14604;DHT22;7388;51.078;13.740;2024-01-16T08:13:54;5.00;39.70
14604;DHT22;7388;51.078;13.740;2024-01-16T08:16:21;5.10;39.80
14604;DHT22;7388;51.078;13.740;2024-01-16T08:18:47;5.20;39.90
14604;DHT22;7388;51.078;13.740;2024-01-16T08:21:13;5.30;40.10
14604;DHT22;7388;51.078;13.740;2024-01-16T08:23:39;5.30;39.80
14604;DHT22;7388;51.078;13.740;2024-01-16T08:26:05;5.40;38.80
14604;DHT22;7388;51.078;13.740;2024-01-16T08:28:30;5.30;39.40
14604;DHT22;7388;51.078;13.740;2024-01-16T08:30:56;5.40;39.60
14604;DHT22;7388;51.078;13.740;2024-01-16T08:33:22;5.40;38.80
14604;DHT22;7388;51.078;13.740;2024-01-16T08:35:47;5.40;39.00
14604;DHT22;7388;51.078;13.740;2024-01-16T08:38:13;5.50;39.10
14604;DHT22;7388;51.078;13.740;2024-01-16T08:40:39;5.50;38.80
14604;DHT22;7388;51.078;13.740;2024-01-16T08:43:05;5.50;38.60
14604;DHT22;7388;51.078;13.740;2024-01-16T08:45:31;5.50;38.70
14604;DHT22;7388;51.078;13.740;2024-01-16T08:47:56;5.40;38.00
14604;DHT22;7388;51.078;13.740;2024-01-16T08:50:23;5.30;38.40
14604;DHT22;7388;51.078;13.740;2024-01-16T08:52:49;5.10;38.40
14604;DHT22;7388;51.078;13.740;2024-01-16T08:55:15;5.10;39.10
14604;DHT22;7388;51.078;13.740;2024-01-16T08:57:40;5.10;38.80
14604;DHT22;7388;51.078;13.740;2024-01-16T09:00:06;5.00;39.20
14604;DHT22;7388;51.078;13.740;2024-01-16T09:02:35;5.00;39.20
14604;DHT22;7388;51.078;13.740;2024-01-16T09:05:00;5.00;39.20
14604;DHT22;7388;51.078;13.740;2024-01-16T09:07:26;5.10;39.30
14604;DHT22;7388;51.078;13.740;2024-01-16T09:09:52;5.30;38.70
14604;DHT22;7388;51.078;13.740;2024-01-16T09:12:19;5.20;38.30
14604;DHT22;7388;51.078;13.740;2024-01-16T09:14:45;5.20;38.30
14604;DHT22;7388;51.078;13.740;2024-01-16T09:17:10;5.10;38.70
14604;DHT22;7388;51.078;13.740;2024-01-16T09:19:36;5.10;38.90
14604;DHT22;7388;51.078;13.740;2024-01-16T09:22:02;5.30;38.80
14604;DHT22;7388;51.078;13.740;2024-01-16T09:24:29;5.40;38.70
14604;DHT22;7388;51.078;13.740;2024-01-16T09:26:55;5.40;38.10
14604;DHT22;7388;51.078;13.740;2024-01-16T09:29:21;5.40;38.00
14604;DHT22;7388;51.078;13.740;2024-01-16T09:31:48;5.50;37.70
14604;DHT22;7388;51.078;13.740;2024-01-16T09:34:14;5.50;38.10
14604;DHT22;7388;51.078;13.740;2024-01-16T09:36:40;5.50;37.80
14604;DHT22;7388;51.078;13.740;2024-01-16T09:39:07;5.70;37.60
14604;DHT22;7388;51.078;13.740;2024-01-16T09:41:34;5.50;37.60
14604;DHT22;7388;51.078;13.740;2024-01-16T09:44:00;5.50;38.30
14604;DHT22;7388;51.078;13.740;2024-01-16T09:46:26;5.70;37.20
14604;DHT22;7388;51.078;13.740;2024-01-16T09:48:55;5.60;36.60
14604;DHT22;7388;51.078;13.740;2024-01-16T09:51:22;4.80;38.10
14604;DHT22;7388;51.078;13.740;2024-01-16T09:53:48;5.60;37.60
14604;DHT22;7388;51.078;13.740;2024-01-16T09:56:20;5.90;37.60
14604;DHT22;7388;51.078;13.740;2024-01-16T09:58:48;6.30;36.90
14604;DHT22;7388;51.078;13.740;2024-01-16T10:01:15;6.50;36.90
14604;DHT22;7388;51.078;13.740;2024-01-16T10:03:45;6.70;35.00
14604;DHT22;7388;51.078;13.740;2024-01-16T10:06:11;6.60;36.20
14604;DHT22;7388;51.078;13.740;2024-01-16T10:08:38;6.70;35.20
14604;DHT22;7388;51.078;13.740;2024-01-16T10:11:04;6.60;35.30
14604;DHT22;7388;51.078;13.740;2024-01-16T10:13:32;6.60;36.20
14604;DHT22;7388;51.078;13.740;2024-01-16T10:15:58;6.80;34.70
14604;DHT22;7388;51.078;13.740;2024-01-16T10:18:26;6.90;34.90
14604;DHT22;7388;51.078;13.740;2024-01-16T10:20:52;7.00;34.20
14604;DHT22;7388;51.078;13.740;2024-01-16T10:23:29;7.00;34.70
14604;DHT22;7388;51.078;13.740;2024-01-16T10:26:13;7.10;33.60
14604;DHT22;7388;51.078;13.740;2024-01-16T10:28:43;7.00;33.90
14604;DHT22;7388;51.078;13.740;2024-01-16T10:31:13;7.10;34.50
14604;DHT22;7388;51.078;13.740;2024-01-16T10:33:41;7.40;33.90
14604;DHT22;7388;51.078;13.740;2024-01-16T10:36:17;7.60;33.10
14604;DHT22;7388;51.078;13.740;2024-01-16T10:38:46;7.70;32.50
14604;DHT22;7388;51.078;13.740;2024-01-16T10:43:39;7.70;32.90
14604;DHT22;7388;51.078;13.740;2024-01-16T10:48:39;8.00;31.70
14604;DHT22;7388;51.078;13.740;2024-01-16T10:51:16;8.10;31.70
14604;DHT22;7388;51.078;13.740;2024-01-16T10:53:44;8.00;31.50
14604;DHT22;7388;51.078;13.740;2024-01-16T10:56:11;8.20;32.50
14604;DHT22;7388;51.078;13.740;2024-01-16T10:58:40;8.30;31.30
14604;DHT22;7388;51.078;13.740;2024-01-16T11:01:10;8.30;31.30
14604;DHT22;7388;51.078;13.740;2024-01-16T11:03:46;8.30;30.10
14604;DHT22;7388;51.078;13.740;2024-01-16T11:06:18;8.20;31.20
14604;DHT22;7388;51.078;13.740;2024-01-16T11:08:47;8.20;30.60
14604;DHT22;7388;51.078;13.740;2024-01-16T11:11:14;8.00;30.60
14604;DHT22;7388;51.078;13.740;2024-01-16T11:13:41;7.90;31.40
14604;DHT22;7388;51.078;13.740;2024-01-16T11:16:11;7.90;31.40
14604;DHT22;7388;51.078;13.740;2024-01-16T11:18:37;7.80;31.10
14604;DHT22;7388;51.078;13.740;2024-01-16T11:21:12;7.70;31.80
14604;DHT22;7388;51.078;13.740;2024-01-16T11:23:38;7.70;31.90
14604;DHT22;7388;51.078;13.740;2024-01-16T11:26:29;7.70;31.40
14604;DHT22;7388;51.078;13.740;2024-01-16T11:28:58;7.80;32.40
14604;DHT22;7388;51.078;13.740;2024-01-16T11:31:34;7.70;31.70
14604;DHT22;7388;51.078;13.740;2024-01-16T11:34:01;7.80;31.40
14604;DHT22;7388;51.078;13.740;2024-01-16T11:36:49;7.70;32.00
14604;DHT22;7388;51.078;13.740;2024-01-16T11:39:25;7.70;31.50
14604;DHT22;7388;51.078;13.740;2024-01-16T11:41:58;7.60;31.20
14604;DHT22;7388;51.078;13.740;2024-01-16T11:44:50;7.40;31.60
14604;DHT22;7388;51.078;13.740;2024-01-16T11:47:18;7.40;32.20
14604;DHT22;7388;51.078;13.740;2024-01-16T11:49:44;7.40;32.30
14604;DHT22;7388;51.078;13.740;2024-01-16T11:52:10;7.50;31.80
14604;DHT22;7388;51.078;13.740;2024-01-16T11:54:41;7.50;32.00
14604;DHT22;7388;51.078;13.740;2024-01-16T11:57:26;7.50;31.30
14604;DHT22;7388;51.078;13.740;2024-01-16T12:00:06;7.60;32.30
14604;DHT22;7388;51.078;13.740;2024-01-16T12:02:53;7.80;31.50
14604;DHT22;7388;51.078;13.740;2024-01-16T12:05:20;7.80;31.30
14604;DHT22;7388;51.078;13.740;2024-01-16T12:07:53;8.00;31.40
14604;DHT22;7388;51.078;13.740;2024-01-16T12:10:23;8.10;31.60
14604;DHT22;7388;51.078;13.740;2024-01-16T12:12:51;8.00;30.10
14604;DHT22;7388;51.078;13.740;2024-01-16T12:15:21;7.90;30.70
14604;DHT22;7388;51.078;13.740;2024-01-16T12:17:58;7.90;31.70
14604;DHT22;7388;51.078;13.740;2024-01-16T12:20:26;8.00;31.80
14604;DHT22;7388;51.078;13.740;2024-01-16T12:23:04;8.10;31.80
14604;DHT22;7388;51.078;13.740;2024-01-16T12:25:31;8.20;31.00
14604;DHT22;7388;51.078;13.740;2024-01-16T12:28:04;8.30;30.90
14604;DHT22;7388;51.078;13.740;2024-01-16T12:30:35;8.30;30.70
14604;DHT22;7388;51.078;13.740;2024-01-16T12:33:11;8.40;30.20
14604;DHT22;7388;51.078;13.740;2024-01-16T12:38:05;8.60;29.10
14604;DHT22;7388;51.078;13.740;2024-01-16T12:40:32;8.60;30.30
14604;DHT22;7388;51.078;13.740;2024-01-16T12:42:59;8.50;29.50
14604;DHT22;7388;51.078;13.740;2024-01-16T12:45:24;8.50;30.40
14604;DHT22;7388;51.078;13.740;2024-01-16T12:47:51;8.50;30.10
14604;DHT22;7388;51.078;13.740;2024-01-16T12:50:22;8.40;29.00
14604;DHT22;7388;51.078;13.740;2024-01-16T12:52:49;8.30;29.00
14604;DHT22;7388;51.078;13.740;2024-01-16T12:55:16;8.20;29.70
14604;DHT22;7388;51.078;13.740;2024-01-16T12:57:44;8.20;30.40
14604;DHT22;7388;51.078;13.740;2024-01-16T13:00:25;8.20;29.80
14604;DHT22;7388;51.078;13.740;2024-01-16T13:02:52;8.40;30.20
14604;DHT22;7388;51.078;13.740;2024-01-16T13:05:18;8.40;29.40
14604;DHT22;7388;51.078;13.740;2024-01-16T13:07:44;8.50;29.30
14604;DHT22;7388;51.078;13.740;2024-01-16T13:10:12;8.40;29.60
14604;DHT22;7388;51.078;13.740;2024-01-16T13:12:41;8.30;28.70
14604;DHT22;7388;51.078;13.740;2024-01-16T13:15:07;8.20;30.00
14604;DHT22;7388;51.078;13.740;2024-01-16T13:17:36;8.20;29.70
14604;DHT22;7388;51.078;13.740;2024-01-16T13:20:02;8.10;30.20
14604;DHT22;7388;51.078;13.740;2024-01-16T13:22:35;8.10;30.20
14604;DHT22;7388;51.078;13.740;2024-01-16T13:25:01;8.00;30.40
14604;DHT22;7388;51.078;13.740;2024-01-16T13:27:27;8.00;30.50
14604;DHT22;7388;51.078;13.740;2024-01-16T13:29:56;8.00;30.70
14604;DHT22;7388;51.078;13.740;2024-01-16T13:32:21;7.90;30.80
14604;DHT22;7388;51.078;13.740;2024-01-16T13:34:47;8.00;30.60
14604;DHT22;7388;51.078;13.740;2024-01-16T13:37:20;8.00;30.70
14604;DHT22;7388;51.078;13.740;2024-01-16T13:39:47;8.20;30.80
14604;DHT22;7388;51.078;13.740;2024-01-16T13:42:13;8.40;30.70
14604;DHT22;7388;51.078;13.740;2024-01-16T13:44:38;8.60;29.80
14604;DHT22;7388;51.078;13.740;2024-01-16T13:47:05;8.70;29.70
14604;DHT22;7388;51.078;13.740;2024-01-16T13:49:30;8.60;30.00
14604;DHT22;7388;51.078;13.740;2024-01-16T13:51:56;8.50;30.00
14604;DHT22;7388;51.078;13.740;2024-01-16T13:54:22;8.40;29.70
14604;DHT22;7388;51.078;13.740;2024-01-16T13:56:47;8.30;30.40
14604;DHT22;7388;51.078;13.740;2024-01-16T13:59:13;8.20;30.10
14604;DHT22;7388;51.078;13.740;2024-01-16T14:01:39;8.10;30.90
14604;DHT22;7388;51.078;13.740;2024-01-16T14:04:05;8.10;30.40
14604;DHT22;7388;51.078;13.740;2024-01-16T14:06:31;8.10;30.60
14604;DHT22;7388;51.078;13.740;2024-01-16T14:08:56;8.10;31.00
14604;DHT22;7388;51.078;13.740;2024-01-16T14:11:22;8.00;30.40
14604;DHT22;7388;51.078;13.740;2024-01-16T14:13:48;8.00;30.60
14604;DHT22;7388;51.078;13.740;2024-01-16T14:16:13;8.00;30.90
14604;DHT22;7388;51.078;13.740;2024-01-16T14:18:39;8.00;31.30
14604;DHT22;7388;51.078;13.740;2024-01-16T14:21:05;8.00;30.90
14604;DHT22;7388;51.078;13.740;2024-01-16T14:23:31;8.00;31.20
14604;DHT22;7388;51.078;13.740;2024-01-16T14:25:57;8.00;31.30
14604;DHT22;7388;51.078;13.740;2024-01-16T14:28:23;8.00;31.40
14604;DHT22;7388;51.078;13.740;2024-01-16T14:30:51;8.00;31.10
14604;DHT22;7388;51.078;13.740;2024-01-16T14:33:17;7.90;31.30
14604;DHT22;7388;51.078;13.740;2024-01-16T14:35:44;7.80;30.80
14604;DHT22;7388;51.078;13.740;2024-01-16T14:38:09;7.70;31.20
14604;DHT22;7388;51.078;13.740;2024-01-16T14:40:36;7.70;31.30
14604;DHT22;7388;51.078;13.740;2024-01-16T14:43:01;7.60;31.50
14604;DHT22;7388;51.078;13.740;2024-01-16T14:45:30;7.50;31.80
14604;DHT22;7388;51.078;13.740;2024-01-16T14:47:57;7.50;31.80
14604;DHT22;7388;51.078;13.740;2024-01-16T14:50:23;7.50;32.00
14604;DHT22;7388;51.078;13.740;2024-01-16T14:52:50;7.40;32.00
14604;DHT22;7388;51.078;13.740;2024-01-16T14:55:16;7.40;32.20
14604;DHT22;7388;51.078;13.740;2024-01-16T14:57:42;7.40;31.70
14604;DHT22;7388;51.078;13.740;2024-01-16T15:00:10;7.30;31.80
14604;DHT22;7388;51.078;13.740;2024-01-16T15:02:46;7.20;32.00
14604;DHT22;7388;51.078;13.740;2024-01-16T15:05:14;7.20;31.80
14604;DHT22;7388;51.078;13.740;2024-01-16T15:07:40;7.10;32.20
14604;DHT22;7388;51.078;13.740;2024-01-16T15:10:08;7.00;31.80
14604;DHT22;7388;51.078;13.740;2024-01-16T15:12:45;7.00;32.30
14604;DHT22;7388;51.078;13.740;2024-01-16T15:15:12;6.90;32.40
14604;DHT22;7388;51.078;13.740;2024-01-16T15:17:39;6.90;32.60
14604;DHT22;7388;51.078;13.740;2024-01-16T15:20:06;6.80;32.50
14604;DHT22;7388;51.078;13.740;2024-01-16T15:22:40;6.80;32.60
14604;DHT22;7388;51.078;13.740;2024-01-16T15:25:07;6.80;32.60
14604;DHT22;7388;51.078;13.740;2024-01-16T15:27:33;6.70;32.90
14604;DHT22;7388;51.078;13.740;2024-01-16T15:29:59;6.80;33.00
14604;DHT22;7388;51.078;13.740;2024-01-16T15:32:25;6.80;32.90
14604;DHT22;7388;51.078;13.740;2024-01-16T15:34:51;6.70;33.00
14604;DHT22;7388;51.078;13.740;2024-01-16T15:37:17;6.70;33.10
14604;DHT22;7388;51.078;13.740;2024-01-16T15:39:43;6.70;33.10
14604;DHT22;7388;51.078;13.740;2024-01-16T15:42:11;6.60;33.20
14604;DHT22;7388;51.078;13.740;2024-01-16T15:44:37;6.60;33.10
14604;DHT22;7388;51.078;13.740;2024-01-16T15:47:03;6.60;33.30
14604;DHT22;7388;51.078;13.740;2024-01-16T15:49:31;6.60;33.30
14604;DHT22;7388;51.078;13.740;2024-01-16T15:51:57;6.60;33.30